AEE220 LGMK-LGAV
Flight info
| Callsign | AEE220 |
|---|---|
| Flight time | 0h 23m |
| Altitude | 10000 |
| Route | VARIX1E VARIX VARIX1W |
| Aircraft | A21N/M-SDE3L/L |
Departure
| Time | 2026-04-21 19:38 |
|---|---|
| Airport | Mykonos Island National Airport (LGMK) |
Arrival
| Time | 2026-04-21 20:01 |
|---|---|
| Airport | Athens Eleftherios Venizelos International Airport (LGAV) |
| Time | Latitude | Longitude | Altitude | Speed | Heading |
|---|---|---|---|---|---|
| 2026-04-21 19:16 | 37.43466 | 25.34668 | 407 ft | 0 kts | 248° |
| 2026-04-21 19:31 | 37.43466 | 25.34669 | 407 ft | 2 kts | 247° |
| 2026-04-21 19:31 | 37.43468 | 25.34676 | 407 ft | 3 kts | 250° |
| 2026-04-21 19:32 | 37.43475 | 25.34703 | 408 ft | 4 kts | 282° |
| 2026-04-21 19:32 | 37.43464 | 25.34728 | 400 ft | 4 kts | 336° |
| 2026-04-21 19:32 | 37.43450 | 25.34735 | 406 ft | 1 kts | 341° |
| 2026-04-21 19:32 | 37.43449 | 25.34735 | 406 ft | 0 kts | 341° |
| 2026-04-21 19:34 | 37.43450 | 25.34735 | 406 ft | 1 kts | 341° |
| 2026-04-21 19:34 | 37.43485 | 25.34720 | 402 ft | 9 kts | 341° |
| 2026-04-21 19:34 | 37.43570 | 25.34684 | 405 ft | 16 kts | 340° |
| 2026-04-21 19:35 | 37.43668 | 25.34717 | 409 ft | 14 kts | 27° |
| 2026-04-21 19:35 | 37.43919 | 25.34637 | 409 ft | 24 kts | 337° |
| 2026-04-21 19:35 | 37.44099 | 25.34562 | 408 ft | 30 kts | 342° |
| 2026-04-21 19:36 | 37.44239 | 25.34479 | 406 ft | 1 kts | 310° |
| 2026-04-21 19:36 | 37.44268 | 25.34460 | 405 ft | 9 kts | 336° |
| 2026-04-21 19:36 | 37.44309 | 25.34483 | 405 ft | 0 kts | 53° |
| 2026-04-21 19:36 | 37.44310 | 25.34485 | 405 ft | 2 kts | 55° |
| 2026-04-21 19:37 | 37.44305 | 25.34515 | 406 ft | 3 kts | 124° |
| 2026-04-21 19:37 | 37.44270 | 25.34513 | 406 ft | 10 kts | 192° |
| 2026-04-21 19:37 | 37.44094 | 25.34571 | 408 ft | 72 kts | 159° |
| 2026-04-21 19:37 | 37.43254 | 25.34942 | 428 ft | 175 kts | 162° |
| 2026-04-21 19:38 | 37.41984 | 25.35460 | 1286 ft | 205 kts | 166° |
| 2026-04-21 19:38 | 37.40516 | 25.35962 | 2414 ft | 234 kts | 170° |
| 2026-04-21 19:38 | 37.39420 | 25.36204 | 3209 ft | 249 kts | 179° |
| 2026-04-21 19:38 | 37.37100 | 25.35607 | 4859 ft | 267 kts | 213° |
| 2026-04-21 19:39 | 37.35696 | 25.34094 | 6175 ft | 272 kts | 234° |
| 2026-04-21 19:39 | 37.34981 | 25.32362 | 7472 ft | 266 kts | 258° |
| 2026-04-21 19:39 | 37.34867 | 25.30006 | 8687 ft | 270 kts | 275° |
| 2026-04-21 19:39 | 37.35006 | 25.27676 | 9338 ft | 273 kts | 276° |
| 2026-04-21 19:40 | 37.35171 | 25.25299 | 9697 ft | 274 kts | 276° |
| 2026-04-21 19:40 | 37.35326 | 25.22905 | 9884 ft | 275 kts | 276° |
| 2026-04-21 19:40 | 37.35467 | 25.20519 | 9998 ft | 274 kts | 275° |
| 2026-04-21 19:40 | 37.35611 | 25.17964 | 10069 ft | 312 kts | 275° |
| 2026-04-21 19:41 | 37.35763 | 25.15202 | 10069 ft | 319 kts | 275° |
| 2026-04-21 19:41 | 37.35915 | 25.12407 | 10069 ft | 321 kts | 275° |
| 2026-04-21 19:41 | 37.36066 | 25.09610 | 10074 ft | 321 kts | 275° |
| 2026-04-21 19:41 | 37.36218 | 25.06813 | 10063 ft | 321 kts | 275° |
| 2026-04-21 19:42 | 37.36370 | 25.04016 | 10072 ft | 321 kts | 275° |
| 2026-04-21 19:42 | 37.36686 | 25.01246 | 10068 ft | 320 kts | 288° |
| 2026-04-21 19:42 | 37.37753 | 24.98804 | 10063 ft | 322 kts | 307° |
| 2026-04-21 19:42 | 37.39312 | 24.96773 | 10067 ft | 322 kts | 315° |
| 2026-04-21 19:43 | 37.40950 | 24.94845 | 10066 ft | 322 kts | 316° |
| 2026-04-21 19:43 | 37.42596 | 24.92931 | 10072 ft | 322 kts | 316° |
| 2026-04-21 19:43 | 37.44234 | 24.91011 | 10061 ft | 322 kts | 315° |
| 2026-04-21 19:43 | 37.45870 | 24.89075 | 10066 ft | 322 kts | 315° |
| 2026-04-21 19:44 | 37.47499 | 24.87134 | 10065 ft | 323 kts | 315° |
| 2026-04-21 19:44 | 37.49124 | 24.85191 | 10072 ft | 323 kts | 315° |
| 2026-04-21 19:44 | 37.50750 | 24.83244 | 10063 ft | 323 kts | 315° |
| 2026-04-21 19:44 | 37.52379 | 24.81293 | 10069 ft | 323 kts | 315° |
| 2026-04-21 19:45 | 37.53454 | 24.80004 | 10060 ft | 323 kts | 315° |
| 2026-04-21 19:45 | 37.55083 | 24.78052 | 10058 ft | 323 kts | 315° |
| 2026-04-21 19:45 | 37.56710 | 24.76100 | 10065 ft | 323 kts | 315° |
| 2026-04-21 19:45 | 37.58337 | 24.74148 | 10057 ft | 323 kts | 315° |
| 2026-04-21 19:46 | 37.59962 | 24.72197 | 10053 ft | 323 kts | 315° |
| 2026-04-21 19:46 | 37.61590 | 24.70242 | 10051 ft | 323 kts | 315° |
| 2026-04-21 19:46 | 37.63215 | 24.68289 | 10049 ft | 323 kts | 315° |
| 2026-04-21 19:46 | 37.64839 | 24.66336 | 10044 ft | 322 kts | 315° |
| 2026-04-21 19:47 | 37.66464 | 24.64381 | 10053 ft | 323 kts | 315° |
| 2026-04-21 19:47 | 37.68085 | 24.62430 | 10038 ft | 323 kts | 315° |
| 2026-04-21 19:47 | 37.69711 | 24.60471 | 10052 ft | 323 kts | 315° |
| 2026-04-21 19:47 | 37.71336 | 24.58512 | 10049 ft | 323 kts | 315° |
| 2026-04-21 19:48 | 37.72961 | 24.56553 | 10048 ft | 323 kts | 315° |
| 2026-04-21 19:48 | 37.74584 | 24.54595 | 10034 ft | 323 kts | 315° |
| 2026-04-21 19:48 | 37.76207 | 24.52635 | 10047 ft | 323 kts | 315° |
| 2026-04-21 19:48 | 37.77828 | 24.50676 | 10039 ft | 322 kts | 315° |
| 2026-04-21 19:49 | 37.79446 | 24.48721 | 10014 ft | 319 kts | 315° |
| 2026-04-21 19:49 | 37.81018 | 24.46821 | 9920 ft | 306 kts | 314° |
| 2026-04-21 19:49 | 37.82483 | 24.45050 | 9789 ft | 291 kts | 314° |
| 2026-04-21 19:49 | 37.83940 | 24.43286 | 9561 ft | 277 kts | 314° |
| 2026-04-21 19:50 | 37.85322 | 24.41609 | 9071 ft | 274 kts | 314° |
| 2026-04-21 19:50 | 37.86691 | 24.39946 | 8546 ft | 272 kts | 314° |
| 2026-04-21 19:50 | 37.88053 | 24.38291 | 8037 ft | 271 kts | 314° |
| 2026-04-21 19:50 | 37.89381 | 24.36678 | 7863 ft | 257 kts | 314° |
| 2026-04-21 19:51 | 37.90637 | 24.35155 | 7744 ft | 243 kts | 314° |
| 2026-04-21 19:51 | 37.91830 | 24.33707 | 7502 ft | 236 kts | 314° |
| 2026-04-21 19:51 | 37.93014 | 24.32265 | 7028 ft | 239 kts | 314° |
| 2026-04-21 19:51 | 37.94236 | 24.30774 | 6228 ft | 250 kts | 315° |
| 2026-04-21 19:52 | 37.95529 | 24.29194 | 5105 ft | 267 kts | 315° |
| 2026-04-21 19:52 | 37.96901 | 24.27522 | 4088 ft | 277 kts | 315° |
| 2026-04-21 19:52 | 37.98270 | 24.25859 | 3538 ft | 269 kts | 315° |
| 2026-04-21 19:52 | 37.99593 | 24.24252 | 3220 ft | 254 kts | 314° |
| 2026-04-21 19:53 | 38.00826 | 24.22754 | 3046 ft | 236 kts | 314° |
| 2026-04-21 19:53 | 38.01950 | 24.21386 | 2959 ft | 213 kts | 314° |
| 2026-04-21 19:53 | 38.02954 | 24.20163 | 2985 ft | 187 kts | 314° |
| 2026-04-21 19:53 | 38.03853 | 24.19065 | 2977 ft | 179 kts | 314° |
| 2026-04-21 19:54 | 38.04750 | 24.17965 | 2965 ft | 178 kts | 314° |
| 2026-04-21 19:54 | 38.05656 | 24.16856 | 2976 ft | 179 kts | 314° |
| 2026-04-21 19:54 | 38.06551 | 24.15760 | 2978 ft | 179 kts | 314° |
| 2026-04-21 19:54 | 38.07442 | 24.14668 | 2976 ft | 178 kts | 314° |
| 2026-04-21 19:55 | 38.08334 | 24.13576 | 2976 ft | 178 kts | 314° |
| 2026-04-21 19:55 | 38.09065 | 24.12368 | 2977 ft | 174 kts | 285° |
| 2026-04-21 19:55 | 38.09007 | 24.10874 | 2988 ft | 174 kts | 243° |
| 2026-04-21 19:55 | 38.08262 | 24.09653 | 2980 ft | 175 kts | 225° |
| 2026-04-21 19:56 | 38.07381 | 24.08706 | 2969 ft | 158 kts | 220° |
| 2026-04-21 19:56 | 38.06555 | 24.07907 | 2966 ft | 140 kts | 220° |
| 2026-04-21 19:56 | 38.05800 | 24.07175 | 2948 ft | 141 kts | 220° |
| 2026-04-21 19:56 | 38.05034 | 24.06441 | 2759 ft | 133 kts | 219° |
| 2026-04-21 19:57 | 38.04327 | 24.05765 | 2585 ft | 121 kts | 220° |
| 2026-04-21 19:57 | 38.03665 | 24.05128 | 2435 ft | 122 kts | 220° |
| 2026-04-21 19:57 | 38.02998 | 24.04490 | 2274 ft | 120 kts | 219° |
| 2026-04-21 19:57 | 38.02328 | 24.03848 | 2115 ft | 121 kts | 219° |
| 2026-04-21 19:58 | 38.01665 | 24.03214 | 1958 ft | 118 kts | 219° |
| 2026-04-21 19:58 | 38.00999 | 24.02576 | 1802 ft | 120 kts | 219° |
| 2026-04-21 19:58 | 38.00334 | 24.01941 | 1647 ft | 121 kts | 218° |
| 2026-04-21 19:58 | 37.99666 | 24.01303 | 1475 ft | 120 kts | 218° |
| 2026-04-21 19:59 | 37.99005 | 24.00671 | 1327 ft | 120 kts | 218° |
| 2026-04-21 19:59 | 37.98342 | 24.00046 | 1154 ft | 119 kts | 217° |
| 2026-04-21 19:59 | 37.97676 | 23.99431 | 1015 ft | 120 kts | 217° |
| 2026-04-21 19:59 | 37.97009 | 23.98808 | 910 ft | 118 kts | 218° |
| 2026-04-21 20:00 | 37.96359 | 23.98154 | 731 ft | 120 kts | 219° |
| 2026-04-21 20:00 | 37.95702 | 23.97524 | 506 ft | 116 kts | 217° |
| 2026-04-21 20:00 | 37.95054 | 23.96909 | 374 ft | 119 kts | 218° |
| 2026-04-21 20:00 | 37.94403 | 23.96276 | 293 ft | 112 kts | 217° |
| 2026-04-21 20:01 | 37.93918 | 23.95807 | 280 ft | 70 kts | 222° |
| 2026-04-21 20:01 | 37.93805 | 23.95552 | 289 ft | 21 kts | 250° |
| 2026-04-21 20:01 | 37.93831 | 23.95448 | 299 ft | 12 kts | 308° |
| 2026-04-21 20:01 | 37.93869 | 23.95353 | 299 ft | 14 kts | 285° |
| 2026-04-21 20:02 | 37.93859 | 23.95225 | 301 ft | 12 kts | 242° |
| 2026-04-21 20:02 | 37.93853 | 23.95213 | 302 ft | 0 kts | 239° |
| 2026-04-21 20:02 | 37.93831 | 23.95181 | 300 ft | 11 kts | 229° |
| 2026-04-21 20:02 | 37.93794 | 23.95145 | 303 ft | 1 kts | 234° |
| 2026-04-21 20:03 | 37.93806 | 23.95107 | 302 ft | 7 kts | 307° |
| 2026-04-21 20:03 | 37.93823 | 23.95082 | 305 ft | 2 kts | 306° |
| 2026-04-21 20:03 | 37.93833 | 23.95066 | 301 ft | 3 kts | 308° |
| 2026-04-21 20:03 | 37.93838 | 23.95057 | 301 ft | 0 kts | 307° |
| 2026-04-21 20:04 | 37.93839 | 23.95056 | 301 ft | 0 kts | 307° |
| 2026-04-21 20:04 | 37.93842 | 23.95050 | 302 ft | 2 kts | 307° |